createdAt,value
2022-11-01T00:01:07.730Z,10.82
2022-11-01T00:03:34.511Z,10.73
2022-11-01T00:06:01.034Z,10.71
2022-11-01T00:08:27.945Z,10.76
2022-11-01T00:11:04.845Z,10.88
2022-11-01T00:13:31.607Z,10.83
2022-11-01T00:15:58.533Z,10.96
2022-11-01T00:18:26.836Z,10.93
2022-11-01T00:20:53.583Z,10.87
2022-11-01T00:23:20.032Z,10.92
2022-11-01T00:25:46.731Z,10.90
2022-11-01T00:28:13.582Z,10.89
2022-11-01T00:30:40.578Z,10.90
2022-11-01T00:33:07.422Z,10.85
2022-11-01T00:35:36.920Z,10.89
2022-11-01T00:38:04.776Z,10.96
2022-11-01T00:40:31.573Z,10.95
2022-11-01T00:42:58.095Z,10.89
2022-11-01T00:45:25.028Z,10.87
2022-11-01T00:47:51.512Z,10.98
2022-11-01T00:50:17.915Z,10.92
2022-11-01T00:52:44.331Z,10.92
2022-11-01T00:55:10.748Z,10.91
2022-11-01T00:57:37.365Z,10.93
2022-11-01T01:00:04.971Z,10.88
2022-11-01T01:02:31.517Z,10.90
2022-11-01T01:04:58.260Z,10.87
2022-11-01T01:07:25.075Z,10.94
2022-11-01T01:09:51.549Z,10.88
2022-11-01T01:12:18.114Z,10.98
2022-11-01T01:14:44.529Z,11.05
2022-11-01T01:17:11.038Z,10.99
2022-11-01T01:19:37.459Z,11.05
2022-11-01T01:22:04.223Z,11.06
2022-11-01T01:24:31.935Z,10.99
2022-11-01T01:26:58.562Z,10.96
2022-11-01T01:29:25.398Z,10.88
2022-11-01T01:31:52.380Z,10.95
2022-11-01T01:34:19.060Z,10.91
2022-11-01T01:36:46.743Z,10.96
2022-11-01T01:39:13.533Z,10.92
2022-11-01T01:41:57.949Z,10.95
2022-11-01T01:44:52.327Z,11.03
2022-11-01T01:47:26.276Z,10.99
2022-11-01T01:50:23.770Z,11.06
2022-11-01T01:52:59.335Z,10.96
2022-11-01T01:55:31.151Z,10.97
2022-11-01T01:57:58.109Z,10.97
2022-11-01T02:00:26.523Z,10.99
2022-11-01T02:02:53.152Z,10.95
2022-11-01T02:05:26.520Z,10.99
2022-11-01T02:07:53.519Z,10.97
2022-11-01T02:10:20.690Z,10.96
2022-11-01T02:12:48.565Z,11.12
2022-11-01T02:15:16.755Z,11.08
2022-11-01T02:17:54.206Z,11.04
2022-11-01T02:20:46.944Z,10.99
2022-11-01T02:23:19.044Z,11.05
2022-11-01T02:26:25.295Z,10.96
2022-11-01T02:29:13.568Z,10.93
2022-11-01T02:32:09.523Z,11.03
2022-11-01T02:34:57.607Z,10.99
2022-11-01T02:37:44.945Z,10.95
2022-11-01T02:40:26.888Z,11.05
2022-11-01T02:42:57.231Z,10.97
2022-11-01T02:45:32.203Z,10.87
2022-11-01T02:48:00.141Z,10.97
2022-11-01T02:50:28.030Z,10.96
2022-11-01T02:52:55.328Z,10.97
2022-11-01T02:55:30.307Z,10.87
2022-11-01T02:58:03.757Z,10.87
2022-11-01T03:00:35.352Z,10.88
2022-11-01T03:03:17.814Z,10.88
2022-11-01T03:05:54.142Z,10.92
2022-11-01T03:08:24.962Z,10.80
2022-11-01T03:11:11.588Z,10.71
2022-11-01T03:14:05.834Z,10.69
2022-11-01T03:16:35.897Z,10.72
2022-11-01T03:19:17.295Z,10.69
2022-11-01T03:21:52.433Z,10.57
2022-11-01T03:24:27.712Z,10.67
2022-11-01T03:27:00.806Z,10.49
2022-11-01T03:29:29.138Z,10.56
2022-11-01T03:31:56.755Z,10.66
2022-11-01T03:34:25.370Z,10.55
2022-11-01T03:36:55.354Z,10.56
2022-11-01T03:39:28.594Z,10.48
2022-11-01T03:41:57.980Z,10.46
2022-11-01T03:44:26.427Z,10.40
2022-11-01T03:46:52.899Z,10.41
2022-11-01T03:49:20.010Z,10.39
2022-11-01T03:51:46.606Z,10.35
2022-11-01T03:54:13.065Z,10.25
2022-11-01T03:56:40.897Z,10.24
2022-11-01T03:59:08.679Z,10.32
2022-11-01T04:01:35.381Z,10.27
2022-11-01T04:04:02.907Z,10.16
2022-11-01T04:06:29.378Z,10.05
2022-11-01T04:08:56.001Z,9.99
2022-11-01T04:11:23.474Z,9.98
2022-11-01T04:13:49.986Z,9.90
2022-11-01T04:16:35.347Z,9.81
2022-11-01T04:19:20.364Z,9.67
2022-11-01T04:21:46.935Z,9.61
2022-11-01T04:24:20.778Z,9.59
2022-11-01T04:26:47.947Z,9.62
2022-11-01T04:29:14.413Z,9.72
2022-11-01T04:31:41.031Z,9.72
2022-11-01T04:34:07.593Z,9.71
2022-11-01T04:36:34.142Z,9.76
2022-11-01T04:39:00.604Z,9.79
2022-11-01T04:41:29.172Z,9.71
2022-11-01T04:43:57.362Z,9.73
2022-11-01T04:46:23.856Z,9.77
2022-11-01T04:48:50.425Z,9.79
2022-11-01T04:51:17.037Z,9.79
2022-11-01T04:53:43.481Z,9.69
2022-11-01T04:56:12.176Z,9.74
2022-11-01T04:58:43.105Z,9.85
2022-11-01T05:01:12.558Z,9.80
2022-11-01T05:03:39.335Z,9.75
2022-11-01T05:06:05.890Z,9.73
2022-11-01T05:08:33.040Z,9.77
2022-11-01T05:10:59.692Z,9.73
2022-11-01T05:13:28.989Z,9.80
2022-11-01T05:16:17.985Z,9.66
2022-11-01T05:18:45.197Z,9.63
2022-11-01T05:21:12.139Z,9.71
2022-11-01T05:23:38.759Z,9.71
2022-11-01T05:26:05.462Z,9.67
2022-11-01T05:28:31.918Z,9.69
2022-11-01T05:30:58.723Z,9.65
2022-11-01T05:33:26.154Z,9.66
2022-11-01T05:35:52.657Z,9.58
2022-11-01T05:38:19.122Z,9.57
2022-11-01T05:40:45.675Z,9.57
2022-11-01T05:43:12.084Z,9.50
2022-11-01T05:45:38.515Z,9.58
2022-11-01T05:48:05.214Z,9.58
2022-11-01T05:50:31.999Z,9.60
2022-11-01T05:53:08.285Z,9.61
2022-11-01T05:55:35.469Z,9.79
2022-11-01T05:58:01.917Z,9.75
2022-11-01T06:00:28.516Z,9.58
2022-11-01T06:02:57.823Z,9.67
2022-11-01T06:05:25.146Z,9.59
2022-11-01T06:07:52.131Z,9.78
2022-11-01T06:10:18.584Z,9.68
2022-11-01T06:12:45.099Z,9.68
2022-11-01T06:15:11.656Z,9.60
2022-11-01T06:17:38.558Z,9.67
2022-11-01T06:20:05.806Z,9.69
2022-11-01T06:22:35.648Z,9.70
2022-11-01T06:25:02.126Z,9.67
2022-11-01T06:27:29.125Z,9.73
2022-11-01T06:29:56.108Z,9.75
2022-11-01T06:32:23.247Z,9.80
2022-11-01T06:34:49.739Z,9.82
2022-11-01T06:37:16.604Z,9.90
2022-11-01T06:39:43.139Z,9.96
2022-11-01T06:42:10.286Z,9.93
2022-11-01T06:44:37.172Z,10.04
2022-11-01T06:47:03.752Z,10.05
2022-11-01T06:49:30.631Z,10.05
2022-11-01T06:51:57.364Z,10.06
2022-11-01T06:54:25.096Z,10.18
2022-11-01T06:56:51.621Z,10.15
2022-11-01T06:59:18.163Z,10.23
2022-11-01T07:01:44.838Z,10.30
2022-11-01T07:06:43.133Z,10.28
2022-11-01T07:09:10.469Z,10.33
2022-11-01T07:11:37.129Z,10.39
2022-11-01T07:14:04.295Z,10.33
2022-11-01T07:16:31.644Z,10.44
2022-11-01T07:18:58.322Z,10.50
2022-11-01T07:21:25.388Z,10.61
2022-11-01T07:23:53.676Z,10.60
2022-11-01T07:26:20.775Z,10.69
2022-11-01T07:28:47.417Z,10.71
2022-11-01T07:31:13.919Z,10.77
2022-11-01T07:33:40.426Z,10.86
2022-11-01T07:36:07.415Z,10.84
2022-11-01T07:38:34.025Z,10.93
2022-11-01T07:41:00.501Z,11.06
2022-11-01T07:43:27.184Z,11.12
2022-11-01T07:45:53.682Z,11.22
2022-11-01T07:48:20.255Z,11.01
2022-11-01T07:50:46.773Z,11.07
2022-11-01T07:53:18.752Z,11.11
2022-11-01T07:55:46.386Z,11.09
2022-11-01T07:58:13.837Z,11.10
2022-11-01T08:00:41.008Z,11.14
2022-11-01T08:03:09.469Z,11.01
2022-11-01T08:05:36.250Z,11.07
2022-11-01T08:08:03.593Z,11.17
2022-11-01T08:10:30.506Z,11.15
2022-11-01T08:13:07.677Z,11.26
2022-11-01T08:15:34.758Z,11.20
2022-11-01T08:18:01.861Z,11.27
2022-11-01T08:20:28.674Z,11.26
2022-11-01T08:22:55.207Z,11.29
2022-11-01T08:25:21.977Z,11.31
2022-11-01T08:27:48.506Z,11.41
2022-11-01T08:30:16.001Z,11.35
2022-11-01T08:32:42.459Z,11.44
2022-11-01T08:35:09.457Z,11.55
2022-11-01T08:37:35.915Z,11.67
2022-11-01T08:40:03.325Z,11.73
2022-11-01T08:42:29.976Z,11.87
2022-11-01T08:44:56.539Z,11.85
2022-11-01T08:47:23.486Z,11.84
2022-11-01T08:49:49.915Z,11.76
2022-11-01T08:52:16.414Z,11.82
2022-11-01T08:54:42.833Z,11.87
2022-11-01T08:57:09.460Z,11.76
2022-11-01T08:59:35.873Z,11.80
2022-11-01T09:02:02.425Z,11.72
2022-11-01T09:04:28.918Z,11.82
2022-11-01T09:06:55.781Z,11.83
2022-11-01T09:09:22.516Z,11.87
2022-11-01T09:11:48.975Z,11.95
2022-11-01T09:14:15.396Z,11.89
2022-11-01T09:16:41.951Z,11.75
2022-11-01T09:19:08.367Z,11.80
2022-11-01T09:21:34.787Z,11.83
2022-11-01T09:24:02.039Z,11.92
2022-11-01T09:26:29.269Z,12.04
2022-11-01T09:28:58.365Z,12.09
2022-11-01T09:31:25.022Z,12.10
2022-11-01T09:33:57.431Z,12.19
2022-11-01T09:36:25.942Z,12.25
2022-11-01T09:38:52.682Z,12.46
2022-11-01T09:41:29.699Z,12.38
2022-11-01T09:44:01.641Z,12.54
2022-11-01T09:46:31.424Z,12.45
2022-11-01T09:49:01.937Z,12.52
2022-11-01T09:51:29.875Z,12.43
2022-11-01T09:53:58.579Z,12.62
2022-11-01T09:56:32.723Z,12.70
2022-11-01T09:59:04.027Z,12.74
2022-11-01T10:01:41.220Z,12.75
2022-11-01T10:04:22.727Z,12.62
2022-11-01T10:06:55.569Z,12.37
2022-11-01T10:09:48.032Z,12.41
2022-11-01T10:12:36.664Z,12.34
2022-11-01T10:15:11.678Z,12.24
2022-11-01T10:17:52.397Z,12.27
2022-11-01T10:20:26.813Z,12.21
2022-11-01T10:22:53.626Z,11.93
2022-11-01T10:25:22.708Z,11.94
2022-11-01T10:28:10.044Z,12.02
2022-11-01T10:30:50.295Z,12.10
2022-11-01T10:33:29.610Z,12.02
2022-11-01T10:36:04.781Z,12.05
2022-11-01T10:39:10.300Z,11.94
2022-11-01T10:41:53.149Z,11.90
2022-11-01T10:44:33.597Z,11.84
2022-11-01T10:47:06.993Z,11.83
2022-11-01T10:50:04.299Z,11.89
2022-11-01T10:52:32.630Z,11.95
2022-11-01T10:54:59.887Z,11.82
2022-11-01T10:57:34.683Z,11.71
2022-11-01T11:00:05.267Z,11.64
2022-11-01T11:02:38.467Z,11.42
2022-11-01T11:05:05.201Z,11.41
2022-11-01T11:07:32.225Z,11.45
2022-11-01T11:12:34.591Z,11.53
2022-11-01T11:15:10.573Z,11.56
2022-11-01T11:17:45.616Z,11.63
2022-11-01T11:20:12.975Z,11.74
2022-11-01T11:22:41.605Z,11.77
2022-11-01T11:25:15.290Z,11.76
2022-11-01T11:27:47.647Z,11.81
2022-11-01T11:30:28.019Z,11.96
2022-11-01T11:32:54.943Z,12.10
2022-11-01T11:35:23.656Z,12.10
2022-11-01T11:37:57.564Z,12.07
2022-11-01T11:40:26.775Z,11.96
2022-11-01T11:42:55.722Z,11.92
2022-11-01T11:45:29.603Z,11.96
2022-11-01T11:47:57.610Z,12.04
2022-11-01T11:50:27.791Z,12.07
2022-11-01T11:53:18.251Z,12.12
2022-11-01T11:56:06.693Z,12.00
2022-11-01T11:58:45.137Z,11.92
2022-11-01T12:01:21.144Z,11.86
2022-11-01T12:03:56.593Z,11.92
2022-11-01T12:06:26.348Z,11.85
2022-11-01T12:08:55.154Z,11.77
2022-11-01T12:11:26.618Z,11.71
2022-11-01T12:14:05.357Z,11.74
2022-11-01T12:16:42.030Z,11.76
2022-11-01T12:19:23.798Z,11.66
2022-11-01T12:21:51.422Z,11.53
2022-11-01T12:24:22.711Z,11.47
2022-11-01T12:26:51.556Z,11.40
2022-11-01T12:29:33.999Z,11.30
2022-11-01T12:32:09.760Z,11.22
2022-11-01T12:34:41.476Z,11.24
2022-11-01T12:37:18.205Z,11.23
2022-11-01T12:40:03.473Z,11.30
2022-11-01T12:42:40.132Z,11.38
2022-11-01T12:45:23.115Z,11.36
2022-11-01T12:47:54.210Z,11.49
2022-11-01T12:50:26.652Z,11.39
2022-11-01T12:53:10.737Z,11.28
2022-11-01T12:55:38.833Z,11.34
2022-11-01T12:58:12.844Z,11.25
2022-11-01T13:00:59.510Z,11.26
2022-11-01T13:03:45.555Z,11.19
2022-11-01T13:06:23.172Z,11.17
2022-11-01T13:09:03.003Z,11.19
2022-11-01T13:12:01.193Z,11.14
2022-11-01T13:14:33.225Z,11.15
2022-11-01T13:17:09.004Z,10.97
2022-11-01T13:20:07.799Z,10.85
2022-11-01T13:22:45.535Z,10.91
2022-11-01T13:25:42.416Z,10.89
2022-11-01T13:28:18.538Z,10.89
2022-11-01T13:31:30.379Z,10.82
2022-11-01T13:34:03.897Z,10.87
2022-11-01T13:36:42.372Z,10.96
2022-11-01T13:39:39.321Z,10.93
2022-11-01T13:42:11.994Z,11.02
2022-11-01T13:44:45.493Z,10.90
2022-11-01T13:47:27.876Z,10.84
2022-11-01T13:50:03.496Z,10.90
2022-11-01T13:52:31.802Z,11.04
2022-11-01T13:55:06.952Z,10.99
2022-11-01T13:57:34.301Z,10.96
2022-11-01T14:00:06.612Z,10.93
2022-11-01T14:02:46.414Z,10.89
2022-11-01T14:05:13.536Z,10.99
2022-11-01T14:07:45.623Z,10.97
2022-11-01T14:10:17.874Z,11.05
2022-11-01T14:12:48.309Z,10.89
2022-11-01T14:15:22.912Z,10.92
2022-11-01T14:18:04.507Z,10.87
2022-11-01T14:20:31.694Z,10.81
2022-11-01T14:22:59.793Z,10.83
2022-11-01T14:25:30.877Z,10.74
2022-11-01T14:28:19.055Z,10.74
2022-11-01T14:30:49.293Z,10.65
2022-11-01T14:33:18.437Z,10.60
2022-11-01T14:35:54.765Z,10.55
2022-11-01T14:38:49.451Z,10.53
2022-11-01T14:41:16.536Z,10.47
2022-11-01T14:43:48.429Z,10.46
2022-11-01T14:46:25.410Z,10.33
2022-11-01T14:49:06.046Z,10.33
2022-11-01T14:51:55.567Z,10.31
2022-11-01T14:54:39.785Z,10.16
2022-11-01T14:57:26.766Z,10.13
2022-11-01T14:59:54.387Z,10.14
2022-11-01T15:02:21.882Z,10.19
2022-11-01T15:04:50.267Z,10.16
2022-11-01T15:07:27.796Z,10.13
2022-11-01T15:10:02.673Z,10.18
2022-11-01T15:12:35.876Z,10.23
2022-11-01T15:15:03.056Z,10.19
2022-11-01T15:17:33.413Z,10.21
2022-11-01T15:20:01.819Z,10.13
2022-11-01T15:22:31.033Z,10.08
2022-11-01T15:25:00.290Z,10.12
2022-11-01T15:27:35.924Z,10.17
2022-11-01T15:30:02.816Z,10.12
2022-11-01T15:32:31.651Z,10.13
2022-11-01T15:35:00.467Z,10.10
2022-11-01T15:37:29.981Z,10.09
2022-11-01T15:39:56.473Z,10.07
2022-11-01T15:42:24.962Z,10.04
2022-11-01T15:44:51.485Z,10.04
2022-11-01T15:47:21.393Z,10.06
2022-11-01T15:49:54.649Z,9.91
2022-11-01T15:52:26.621Z,9.89
2022-11-01T15:55:16.846Z,9.92
2022-11-01T15:58:11.426Z,9.89
2022-11-01T16:00:42.735Z,9.94
2022-11-01T16:03:16.617Z,9.94
2022-11-01T16:05:49.790Z,9.86
2022-11-01T16:08:26.899Z,9.84
2022-11-01T16:10:53.513Z,9.82
2022-11-01T16:13:20.317Z,9.85
2022-11-01T16:16:10.844Z,9.83
2022-11-01T16:18:39.809Z,9.87
2022-11-01T16:21:21.329Z,9.90
2022-11-01T16:24:09.963Z,9.87
2022-11-01T16:27:03.653Z,9.93
2022-11-01T16:29:49.405Z,9.90
2022-11-01T16:32:18.278Z,9.86
2022-11-01T16:34:45.794Z,9.88
2022-11-01T16:37:23.947Z,10.03
2022-11-01T16:39:51.132Z,9.93
2022-11-01T16:42:18.254Z,10.00
2022-11-01T16:44:45.767Z,10.04
2022-11-01T16:47:14.298Z,10.19
2022-11-01T16:49:51.855Z,10.14
2022-11-01T16:52:18.567Z,10.12
2022-11-01T16:54:48.556Z,10.19
2022-11-01T16:57:27.031Z,10.21
2022-11-01T16:59:57.351Z,10.21
2022-11-01T17:02:29.654Z,10.26
2022-11-01T17:05:06.633Z,10.15
2022-11-01T17:07:33.096Z,10.14
2022-11-01T17:09:59.761Z,10.09
2022-11-01T17:12:26.737Z,10.04
2022-11-01T17:14:53.691Z,9.97
2022-11-01T17:17:25.046Z,10.00
2022-11-01T17:19:56.853Z,9.99
2022-11-01T17:22:29.681Z,10.02
2022-11-01T17:24:56.145Z,10.05
2022-11-01T17:27:22.756Z,10.00
2022-11-01T17:29:50.337Z,9.93
2022-11-01T17:32:16.794Z,10.17
2022-11-01T17:34:43.261Z,10.06
2022-11-01T17:37:14.521Z,10.18
2022-11-01T17:39:41.072Z,10.12
2022-11-01T17:42:09.490Z,10.09
2022-11-01T17:44:36.329Z,10.07
2022-11-01T17:47:03.110Z,10.07
2022-11-01T17:49:29.623Z,10.00
2022-11-01T17:51:56.267Z,10.04
2022-11-01T17:54:23.885Z,10.10
2022-11-01T17:56:51.335Z,10.02
2022-11-01T17:59:18.475Z,10.06
2022-11-01T18:01:45.275Z,10.01
2022-11-01T18:04:12.021Z,10.00
2022-11-01T18:06:40.961Z,10.09
2022-11-01T18:09:19.398Z,10.00
2022-11-01T18:12:06.034Z,10.05
2022-11-01T18:17:33.068Z,10.11
2022-11-01T18:20:19.403Z,9.95
2022-11-01T18:22:50.261Z,10.06
2022-11-01T18:25:22.815Z,9.94
2022-11-01T18:27:49.570Z,10.02
2022-11-01T18:30:18.261Z,9.97
2022-11-01T18:33:05.658Z,9.88
2022-11-01T18:35:39.753Z,9.87
2022-11-01T18:38:22.132Z,9.89
2022-11-01T18:41:01.113Z,9.78
2022-11-01T18:43:32.678Z,9.77
2022-11-01T18:48:47.872Z,9.63
2022-11-01T18:51:18.648Z,9.63
2022-11-01T18:53:45.133Z,9.54
2022-11-01T18:56:22.931Z,9.58
2022-11-01T18:58:51.246Z,9.54
2022-11-01T19:01:20.322Z,9.55
2022-11-01T19:04:25.561Z,9.52
2022-11-01T19:06:57.690Z,9.57
2022-11-01T19:09:29.087Z,9.56
2022-11-01T19:11:59.920Z,9.49
2022-11-01T19:14:27.289Z,9.45
2022-11-01T19:16:54.205Z,9.48
2022-11-01T19:19:21.404Z,9.42
2022-11-01T19:21:48.102Z,9.40
2022-11-01T19:24:37.562Z,9.43
2022-11-01T19:27:15.355Z,9.43
2022-11-01T19:29:41.973Z,9.43
2022-11-01T19:32:14.752Z,9.35
2022-11-01T19:34:41.533Z,9.43
2022-11-01T19:37:33.125Z,9.38
2022-11-01T19:40:04.508Z,9.36
2022-11-01T19:42:31.850Z,9.43
2022-11-01T19:45:03.320Z,9.50
2022-11-01T19:47:38.685Z,9.49
2022-11-01T19:50:26.615Z,9.48
2022-11-01T19:52:56.399Z,9.51
2022-11-01T19:55:51.221Z,9.45
2022-11-01T19:58:56.127Z,9.51
2022-11-01T20:01:42.864Z,9.54
2022-11-01T20:04:25.945Z,9.54
2022-11-01T20:07:02.126Z,9.57
2022-11-01T20:09:30.738Z,9.53
2022-11-01T20:11:57.271Z,9.55
2022-11-01T20:14:24.002Z,9.50
2022-11-01T20:16:50.885Z,9.58
2022-11-01T20:19:18.048Z,9.53
2022-11-01T20:21:45.111Z,9.58
2022-11-01T20:24:12.179Z,9.51
2022-11-01T20:26:38.721Z,9.49
2022-11-01T20:29:05.229Z,9.56
2022-11-01T20:31:32.039Z,9.56
2022-11-01T20:34:00.069Z,9.51
2022-11-01T20:36:27.581Z,9.52
2022-11-01T20:38:54.129Z,9.50
2022-11-01T20:41:21.126Z,9.55
2022-11-01T20:43:47.797Z,9.58
2022-11-01T20:46:14.465Z,9.54
2022-11-01T20:48:40.918Z,9.56
2022-11-01T20:51:07.957Z,9.61
2022-11-01T20:53:34.423Z,9.73
2022-11-01T20:56:01.671Z,9.61
2022-11-01T20:58:28.485Z,9.71
2022-11-01T21:00:55.788Z,9.65
2022-11-01T21:03:25.466Z,9.65
2022-11-01T21:05:52.398Z,9.67
2022-11-01T21:08:23.596Z,9.67
2022-11-01T21:10:59.471Z,9.69
2022-11-01T21:13:29.820Z,9.72
2022-11-01T21:15:58.062Z,9.76
2022-11-01T21:18:30.791Z,9.72
2022-11-01T21:20:58.995Z,9.70
2022-11-01T21:23:35.853Z,9.77
2022-11-01T21:26:25.482Z,9.77
2022-11-01T21:29:01.517Z,9.76
2022-11-01T21:31:30.146Z,9.70
2022-11-01T21:34:10.417Z,9.78
2022-11-01T21:36:40.634Z,9.70
2022-11-01T21:39:19.957Z,9.81
2022-11-01T21:42:30.557Z,9.72
2022-11-01T21:44:57.171Z,9.66
2022-11-01T21:47:25.372Z,9.71
2022-11-01T21:49:51.907Z,9.61
2022-11-01T21:52:21.089Z,9.60
2022-11-01T21:54:48.086Z,9.52
2022-11-01T21:57:15.645Z,9.48
2022-11-01T21:59:42.882Z,9.53
2022-11-01T22:02:13.548Z,9.58
2022-11-01T22:04:40.383Z,9.57
2022-11-01T22:07:09.420Z,9.57
2022-11-01T22:09:36.207Z,9.54
2022-11-01T22:12:02.988Z,9.44
2022-11-01T22:14:29.699Z,9.43
2022-11-01T22:16:56.811Z,9.44
2022-11-01T22:19:24.063Z,9.38
2022-11-01T22:21:51.146Z,9.41
2022-11-01T22:24:17.679Z,9.33
2022-11-01T22:26:44.164Z,9.32
2022-11-01T22:29:10.858Z,9.37
2022-11-01T22:31:37.263Z,9.35
2022-11-01T22:34:03.773Z,9.32
2022-11-01T22:36:31.558Z,9.32
2022-11-01T22:38:59.545Z,9.28
2022-11-01T22:41:33.254Z,9.27
2022-11-01T22:44:27.733Z,9.25
2022-11-01T22:46:59.441Z,9.28
2022-11-01T22:49:29.922Z,9.26
2022-11-01T22:52:00.028Z,9.21
2022-11-01T22:54:40.934Z,9.22
2022-11-01T22:57:09.939Z,9.25
2022-11-01T22:59:41.378Z,9.32
2022-11-01T23:02:29.165Z,9.21
2022-11-01T23:05:08.229Z,9.19
2022-11-01T23:07:35.703Z,9.19
2022-11-01T23:10:05.333Z,9.25
2022-11-01T23:12:52.622Z,9.24
2022-11-01T23:15:26.973Z,9.23
2022-11-01T23:17:53.653Z,9.23
2022-11-01T23:20:20.217Z,9.20
2022-11-01T23:22:46.629Z,9.16
2022-11-01T23:25:13.143Z,9.19
2022-11-01T23:27:41.298Z,9.24
2022-11-01T23:30:08.226Z,9.15
2022-11-01T23:32:34.771Z,9.21
2022-11-01T23:35:11.017Z,9.14
2022-11-01T23:37:37.511Z,9.20
2022-11-01T23:40:08.585Z,9.21
2022-11-01T23:42:35.195Z,9.18
2022-11-01T23:45:09.475Z,9.17
2022-11-01T23:47:44.936Z,9.11
2022-11-01T23:50:22.910Z,9.22
2022-11-01T23:52:58.452Z,9.22
2022-11-01T23:55:31.188Z,9.15
2022-11-01T23:58:00.342Z,9.18
